sensor_id;sensor_type;location;lat;lon;timestamp;P1;durP1;ratioP1;P2;durP2;ratioP2
59294;SDS011;45067;44.654;20.200;2022-12-08T00:00:14;90.00;;;51.30;;
59294;SDS011;45067;44.654;20.200;2022-12-08T00:02:41;70.20;;;43.33;;
59294;SDS011;45067;44.654;20.200;2022-12-08T00:05:08;64.38;;;41.35;;
59294;SDS011;45067;44.654;20.200;2022-12-08T00:07:53;55.05;;;36.05;;
59294;SDS011;45067;44.654;20.200;2022-12-08T00:10:37;53.38;;;34.28;;
59294;SDS011;45067;44.654;20.200;2022-12-08T00:13:03;51.60;;;32.92;;
59294;SDS011;45067;44.654;20.200;2022-12-08T00:15:30;57.60;;;35.17;;
59294;SDS011;45067;44.654;20.200;2022-12-08T00:20:52;58.90;;;34.45;;
59294;SDS011;45067;44.654;20.200;2022-12-08T00:23:19;59.60;;;35.45;;
59294;SDS011;45067;44.654;20.200;2022-12-08T00:25:45;61.90;;;35.90;;
59294;SDS011;45067;44.654;20.200;2022-12-08T00:28:11;58.75;;;33.67;;
59294;SDS011;45067;44.654;20.200;2022-12-08T00:30:38;57.42;;;33.78;;
59294;SDS011;45067;44.654;20.200;2022-12-08T00:33:10;59.88;;;33.42;;
59294;SDS011;45067;44.654;20.200;2022-12-08T00:35:36;61.90;;;34.35;;
59294;SDS011;45067;44.654;20.200;2022-12-08T00:38:02;66.03;;;34.17;;
59294;SDS011;45067;44.654;20.200;2022-12-08T00:40:28;59.75;;;33.58;;
59294;SDS011;45067;44.654;20.200;2022-12-08T00:42:54;64.25;;;33.95;;
59294;SDS011;45067;44.654;20.200;2022-12-08T00:45:20;69.45;;;35.00;;
59294;SDS011;45067;44.654;20.200;2022-12-08T00:47:47;64.13;;;35.55;;
59294;SDS011;45067;44.654;20.200;2022-12-08T00:50:13;69.75;;;36.40;;
59294;SDS011;45067;44.654;20.200;2022-12-08T00:52:39;71.30;;;38.88;;
59294;SDS011;45067;44.654;20.200;2022-12-08T00:55:05;80.90;;;44.70;;
59294;SDS011;45067;44.654;20.200;2022-12-08T00:57:31;81.20;;;42.35;;
59294;SDS011;45067;44.654;20.200;2022-12-08T00:59:57;75.22;;;41.33;;
59294;SDS011;45067;44.654;20.200;2022-12-08T01:02:23;82.88;;;39.92;;
59294;SDS011;45067;44.654;20.200;2022-12-08T01:04:49;91.93;;;46.17;;
59294;SDS011;45067;44.654;20.200;2022-12-08T01:07:16;81.32;;;42.08;;
59294;SDS011;45067;44.654;20.200;2022-12-08T01:09:42;72.78;;;38.92;;
59294;SDS011;45067;44.654;20.200;2022-12-08T01:12:08;73.43;;;41.53;;
59294;SDS011;45067;44.654;20.200;2022-12-08T01:14:35;68.18;;;37.75;;
59294;SDS011;45067;44.654;20.200;2022-12-08T01:17:01;72.70;;;39.53;;
59294;SDS011;45067;44.654;20.200;2022-12-08T01:19:27;59.08;;;35.17;;
59294;SDS011;45067;44.654;20.200;2022-12-08T01:21:55;57.03;;;34.35;;
59294;SDS011;45067;44.654;20.200;2022-12-08T01:24:21;56.53;;;33.72;;
59294;SDS011;45067;44.654;20.200;2022-12-08T01:26:48;58.65;;;34.53;;
59294;SDS011;45067;44.654;20.200;2022-12-08T01:29:14;54.72;;;33.75;;
59294;SDS011;45067;44.654;20.200;2022-12-08T01:31:41;53.20;;;32.83;;
59294;SDS011;45067;44.654;20.200;2022-12-08T01:34:16;53.95;;;33.35;;
59294;SDS011;45067;44.654;20.200;2022-12-08T01:36:43;50.90;;;33.40;;
59294;SDS011;45067;44.654;20.200;2022-12-08T01:39:12;52.00;;;33.20;;
59294;SDS011;45067;44.654;20.200;2022-12-08T01:41:38;54.13;;;33.60;;
59294;SDS011;45067;44.654;20.200;2022-12-08T01:46:38;50.72;;;32.20;;
59294;SDS011;45067;44.654;20.200;2022-12-08T01:51:34;56.05;;;35.00;;
59294;SDS011;45067;44.654;20.200;2022-12-08T01:54:03;53.03;;;33.67;;
59294;SDS011;45067;44.654;20.200;2022-12-08T01:56:31;51.90;;;33.88;;
59294;SDS011;45067;44.654;20.200;2022-12-08T01:59:01;51.90;;;33.80;;
59294;SDS011;45067;44.654;20.200;2022-12-08T02:01:28;57.28;;;35.38;;
59294;SDS011;45067;44.654;20.200;2022-12-08T02:03:58;53.75;;;34.00;;
59294;SDS011;45067;44.654;20.200;2022-12-08T02:06:25;51.42;;;33.22;;
59294;SDS011;45067;44.654;20.200;2022-12-08T02:08:51;53.78;;;34.00;;
59294;SDS011;45067;44.654;20.200;2022-12-08T02:11:19;50.38;;;31.38;;
59294;SDS011;45067;44.654;20.200;2022-12-08T02:13:45;49.38;;;31.50;;
59294;SDS011;45067;44.654;20.200;2022-12-08T02:24:32;47.90;;;31.65;;
59294;SDS011;45067;44.654;20.200;2022-12-08T02:27:19;47.47;;;30.40;;
59294;SDS011;45067;44.654;20.200;2022-12-08T02:37:48;51.63;;;32.97;;
59294;SDS011;45067;44.654;20.200;2022-12-08T02:40:16;51.45;;;32.13;;
59294;SDS011;45067;44.654;20.200;2022-12-08T02:42:51;46.38;;;29.65;;
59294;SDS011;45067;44.654;20.200;2022-12-08T02:47:45;49.22;;;31.17;;
59294;SDS011;45067;44.654;20.200;2022-12-08T02:50:13;58.70;;;37.40;;
59294;SDS011;45067;44.654;20.200;2022-12-08T02:52:41;59.20;;;37.13;;
59294;SDS011;45067;44.654;20.200;2022-12-08T02:55:10;54.67;;;34.63;;
59294;SDS011;45067;44.654;20.200;2022-12-08T03:00:07;56.72;;;36.25;;
59294;SDS011;45067;44.654;20.200;2022-12-08T03:05:10;56.90;;;36.30;;
59294;SDS011;45067;44.654;20.200;2022-12-08T03:10:09;60.22;;;36.70;;
59294;SDS011;45067;44.654;20.200;2022-12-08T03:12:46;60.70;;;38.10;;
59294;SDS011;45067;44.654;20.200;2022-12-08T03:15:14;59.38;;;37.35;;
59294;SDS011;45067;44.654;20.200;2022-12-08T03:17:42;60.55;;;37.65;;
59294;SDS011;45067;44.654;20.200;2022-12-08T03:20:12;62.83;;;37.67;;
59294;SDS011;45067;44.654;20.200;2022-12-08T03:22:39;65.10;;;37.30;;
59294;SDS011;45067;44.654;20.200;2022-12-08T03:25:06;62.72;;;39.42;;
59294;SDS011;45067;44.654;20.200;2022-12-08T03:27:33;61.63;;;39.88;;
59294;SDS011;45067;44.654;20.200;2022-12-08T03:29:59;72.43;;;41.92;;
59294;SDS011;45067;44.654;20.200;2022-12-08T03:35:21;60.60;;;37.17;;
59294;SDS011;45067;44.654;20.200;2022-12-08T03:37:48;52.50;;;33.65;;
59294;SDS011;45067;44.654;20.200;2022-12-08T03:40:17;48.03;;;30.80;;
59294;SDS011;45067;44.654;20.200;2022-12-08T03:42:44;52.70;;;32.83;;
59294;SDS011;45067;44.654;20.200;2022-12-08T03:45:10;52.45;;;32.10;;
59294;SDS011;45067;44.654;20.200;2022-12-08T03:47:36;52.65;;;33.00;;
59294;SDS011;45067;44.654;20.200;2022-12-08T03:50:03;47.05;;;30.25;;
59294;SDS011;45067;44.654;20.200;2022-12-08T03:52:29;52.03;;;31.65;;
59294;SDS011;45067;44.654;20.200;2022-12-08T03:54:55;47.20;;;29.85;;
59294;SDS011;45067;44.654;20.200;2022-12-08T03:57:21;52.45;;;29.52;;
59294;SDS011;45067;44.654;20.200;2022-12-08T03:59:48;49.53;;;30.17;;
59294;SDS011;45067;44.654;20.200;2022-12-08T04:02:14;51.47;;;31.33;;
59294;SDS011;45067;44.654;20.200;2022-12-08T04:04:41;50.05;;;30.38;;
59294;SDS011;45067;44.654;20.200;2022-12-08T04:07:07;49.00;;;31.20;;
59294;SDS011;45067;44.654;20.200;2022-12-08T04:09:33;46.58;;;29.85;;
59294;SDS011;45067;44.654;20.200;2022-12-08T04:11:59;44.90;;;28.73;;
59294;SDS011;45067;44.654;20.200;2022-12-08T04:14:25;44.92;;;28.58;;
59294;SDS011;45067;44.654;20.200;2022-12-08T04:16:51;47.80;;;29.77;;
59294;SDS011;45067;44.654;20.200;2022-12-08T04:19:26;46.90;;;28.83;;
59294;SDS011;45067;44.654;20.200;2022-12-08T04:21:52;49.10;;;29.33;;
59294;SDS011;45067;44.654;20.200;2022-12-08T04:24:18;46.88;;;29.15;;
59294;SDS011;45067;44.654;20.200;2022-12-08T04:26:44;48.42;;;30.10;;
59294;SDS011;45067;44.654;20.200;2022-12-08T04:29:11;49.08;;;30.30;;
59294;SDS011;45067;44.654;20.200;2022-12-08T04:31:37;47.53;;;30.70;;
59294;SDS011;45067;44.654;20.200;2022-12-08T04:34:03;48.85;;;32.60;;
59294;SDS011;45067;44.654;20.200;2022-12-08T04:36:29;45.88;;;29.63;;
59294;SDS011;45067;44.654;20.200;2022-12-08T04:38:55;50.58;;;30.35;;
59294;SDS011;45067;44.654;20.200;2022-12-08T04:41:21;51.28;;;31.63;;
59294;SDS011;45067;44.654;20.200;2022-12-08T04:43:47;47.58;;;30.85;;
59294;SDS011;45067;44.654;20.200;2022-12-08T04:46:13;51.92;;;31.35;;
59294;SDS011;45067;44.654;20.200;2022-12-08T04:48:39;51.20;;;32.47;;
59294;SDS011;45067;44.654;20.200;2022-12-08T04:51:06;50.33;;;32.67;;
59294;SDS011;45067;44.654;20.200;2022-12-08T04:53:32;51.50;;;32.33;;
59294;SDS011;45067;44.654;20.200;2022-12-08T04:55:58;49.95;;;31.00;;
59294;SDS011;45067;44.654;20.200;2022-12-08T04:58:24;46.88;;;29.40;;
59294;SDS011;45067;44.654;20.200;2022-12-08T05:00:50;55.60;;;32.45;;
59294;SDS011;45067;44.654;20.200;2022-12-08T05:03:16;49.28;;;32.03;;
59294;SDS011;45067;44.654;20.200;2022-12-08T05:05:43;55.08;;;32.97;;
59294;SDS011;45067;44.654;20.200;2022-12-08T05:08:09;50.45;;;32.30;;
59294;SDS011;45067;44.654;20.200;2022-12-08T05:10:35;50.90;;;31.27;;
59294;SDS011;45067;44.654;20.200;2022-12-08T05:13:01;55.75;;;34.38;;
59294;SDS011;45067;44.654;20.200;2022-12-08T05:15:28;57.72;;;36.72;;
59294;SDS011;45067;44.654;20.200;2022-12-08T05:17:54;58.78;;;35.75;;
59294;SDS011;45067;44.654;20.200;2022-12-08T05:20:20;51.17;;;32.05;;
59294;SDS011;45067;44.654;20.200;2022-12-08T05:22:46;47.67;;;31.02;;
59294;SDS011;45067;44.654;20.200;2022-12-08T05:25:12;49.45;;;31.50;;
59294;SDS011;45067;44.654;20.200;2022-12-08T05:27:38;45.45;;;29.67;;
59294;SDS011;45067;44.654;20.200;2022-12-08T05:30:05;49.88;;;31.15;;
59294;SDS011;45067;44.654;20.200;2022-12-08T05:32:31;52.20;;;31.92;;
59294;SDS011;45067;44.654;20.200;2022-12-08T05:34:57;46.63;;;30.27;;
59294;SDS011;45067;44.654;20.200;2022-12-08T05:37:23;50.22;;;30.73;;
59294;SDS011;45067;44.654;20.200;2022-12-08T05:39:50;45.40;;;28.63;;
59294;SDS011;45067;44.654;20.200;2022-12-08T05:42:16;44.20;;;29.08;;
59294;SDS011;45067;44.654;20.200;2022-12-08T05:44:42;48.28;;;30.77;;
59294;SDS011;45067;44.654;20.200;2022-12-08T05:47:08;43.15;;;29.45;;
59294;SDS011;45067;44.654;20.200;2022-12-08T05:49:34;48.75;;;30.45;;
59294;SDS011;45067;44.654;20.200;2022-12-08T05:52:01;51.25;;;31.17;;
59294;SDS011;45067;44.654;20.200;2022-12-08T05:54:27;46.08;;;28.77;;
59294;SDS011;45067;44.654;20.200;2022-12-08T05:56:53;46.10;;;28.77;;
59294;SDS011;45067;44.654;20.200;2022-12-08T05:59:19;48.85;;;28.60;;
59294;SDS011;45067;44.654;20.200;2022-12-08T06:01:45;41.40;;;25.02;;
59294;SDS011;45067;44.654;20.200;2022-12-08T06:04:11;65.18;;;37.42;;
59294;SDS011;45067;44.654;20.200;2022-12-08T06:06:37;68.20;;;36.63;;
59294;SDS011;45067;44.654;20.200;2022-12-08T06:09:03;54.67;;;34.58;;
59294;SDS011;45067;44.654;20.200;2022-12-08T06:11:30;54.83;;;33.38;;
59294;SDS011;45067;44.654;20.200;2022-12-08T06:13:57;51.97;;;31.25;;
59294;SDS011;45067;44.654;20.200;2022-12-08T06:16:24;55.53;;;33.33;;
59294;SDS011;45067;44.654;20.200;2022-12-08T06:18:56;57.90;;;33.90;;
59294;SDS011;45067;44.654;20.200;2022-12-08T06:21:22;62.83;;;36.92;;
59294;SDS011;45067;44.654;20.200;2022-12-08T06:23:49;61.45;;;38.83;;
59294;SDS011;45067;44.654;20.200;2022-12-08T06:26:16;58.25;;;36.05;;
59294;SDS011;45067;44.654;20.200;2022-12-08T06:28:43;56.55;;;33.25;;
59294;SDS011;45067;44.654;20.200;2022-12-08T06:31:13;57.53;;;35.00;;
59294;SDS011;45067;44.654;20.200;2022-12-08T06:33:40;44.50;;;27.77;;
59294;SDS011;45067;44.654;20.200;2022-12-08T06:36:06;83.85;;;54.05;;
59294;SDS011;45067;44.654;20.200;2022-12-08T06:38:32;69.03;;;42.88;;
59294;SDS011;45067;44.654;20.200;2022-12-08T06:40:59;52.55;;;35.05;;
59294;SDS011;45067;44.654;20.200;2022-12-08T06:43:25;62.65;;;40.33;;
59294;SDS011;45067;44.654;20.200;2022-12-08T06:45:52;64.60;;;43.15;;
59294;SDS011;45067;44.654;20.200;2022-12-08T06:48:21;64.28;;;42.00;;
59294;SDS011;45067;44.654;20.200;2022-12-08T06:50:47;73.13;;;40.17;;
59294;SDS011;45067;44.654;20.200;2022-12-08T06:53:14;75.32;;;41.88;;
59294;SDS011;45067;44.654;20.200;2022-12-08T06:55:44;75.53;;;40.03;;
59294;SDS011;45067;44.654;20.200;2022-12-08T06:58:10;65.38;;;37.65;;
59294;SDS011;45067;44.654;20.200;2022-12-08T07:00:36;64.15;;;38.53;;
59294;SDS011;45067;44.654;20.200;2022-12-08T07:03:02;55.95;;;33.65;;
59294;SDS011;45067;44.654;20.200;2022-12-08T07:05:28;52.78;;;32.78;;
59294;SDS011;45067;44.654;20.200;2022-12-08T07:07:54;45.05;;;29.42;;
59294;SDS011;45067;44.654;20.200;2022-12-08T07:10:20;63.03;;;36.92;;
59294;SDS011;45067;44.654;20.200;2022-12-08T07:12:47;64.38;;;38.13;;
59294;SDS011;45067;44.654;20.200;2022-12-08T07:15:13;71.82;;;41.05;;
59294;SDS011;45067;44.654;20.200;2022-12-08T07:17:39;67.35;;;36.78;;
59294;SDS011;45067;44.654;20.200;2022-12-08T07:20:05;49.70;;;30.65;;
59294;SDS011;45067;44.654;20.200;2022-12-08T07:22:31;40.20;;;26.30;;
59294;SDS011;45067;44.654;20.200;2022-12-08T07:24:57;40.72;;;24.17;;
59294;SDS011;45067;44.654;20.200;2022-12-08T07:27:23;38.15;;;23.63;;
59294;SDS011;45067;44.654;20.200;2022-12-08T07:29:50;40.13;;;25.77;;
59294;SDS011;45067;44.654;20.200;2022-12-08T07:32:16;47.88;;;28.13;;
59294;SDS011;45067;44.654;20.200;2022-12-08T07:34:51;49.92;;;30.85;;
59294;SDS011;45067;44.654;20.200;2022-12-08T07:37:17;45.92;;;28.40;;
59294;SDS011;45067;44.654;20.200;2022-12-08T07:39:43;45.28;;;28.95;;
59294;SDS011;45067;44.654;20.200;2022-12-08T07:42:09;44.47;;;28.67;;
59294;SDS011;45067;44.654;20.200;2022-12-08T07:44:35;46.40;;;29.88;;
59294;SDS011;45067;44.654;20.200;2022-12-08T07:47:01;48.35;;;29.77;;
59294;SDS011;45067;44.654;20.200;2022-12-08T07:49:46;54.83;;;32.85;;
59294;SDS011;45067;44.654;20.200;2022-12-08T07:52:12;43.92;;;27.98;;
59294;SDS011;45067;44.654;20.200;2022-12-08T07:54:38;43.75;;;27.75;;
59294;SDS011;45067;44.654;20.200;2022-12-08T07:57:04;39.30;;;26.05;;
59294;SDS011;45067;44.654;20.200;2022-12-08T07:59:30;42.40;;;25.58;;
59294;SDS011;45067;44.654;20.200;2022-12-08T08:01:57;39.17;;;25.17;;
59294;SDS011;45067;44.654;20.200;2022-12-08T08:04:23;38.38;;;24.13;;
59294;SDS011;45067;44.654;20.200;2022-12-08T08:06:49;36.22;;;23.73;;
59294;SDS011;45067;44.654;20.200;2022-12-08T08:09:15;35.70;;;22.67;;
59294;SDS011;45067;44.654;20.200;2022-12-08T08:11:41;32.08;;;21.15;;
59294;SDS011;45067;44.654;20.200;2022-12-08T08:14:07;37.28;;;23.88;;
59294;SDS011;45067;44.654;20.200;2022-12-08T08:16:33;32.67;;;22.40;;
59294;SDS011;45067;44.654;20.200;2022-12-08T08:19:04;31.60;;;20.90;;
59294;SDS011;45067;44.654;20.200;2022-12-08T08:21:30;32.20;;;21.30;;
59294;SDS011;45067;44.654;20.200;2022-12-08T08:23:57;38.15;;;24.48;;
59294;SDS011;45067;44.654;20.200;2022-12-08T08:26:23;35.92;;;23.65;;
59294;SDS011;45067;44.654;20.200;2022-12-08T08:28:49;39.53;;;26.27;;
59294;SDS011;45067;44.654;20.200;2022-12-08T08:31:15;44.40;;;29.63;;
59294;SDS011;45067;44.654;20.200;2022-12-08T08:33:41;39.72;;;26.45;;
59294;SDS011;45067;44.654;20.200;2022-12-08T08:36:08;39.45;;;24.83;;
59294;SDS011;45067;44.654;20.200;2022-12-08T08:38:35;35.15;;;23.35;;
59294;SDS011;45067;44.654;20.200;2022-12-08T08:41:10;33.28;;;22.15;;
59294;SDS011;45067;44.654;20.200;2022-12-08T08:43:36;33.85;;;23.73;;
59294;SDS011;45067;44.654;20.200;2022-12-08T08:46:03;33.55;;;22.75;;
59294;SDS011;45067;44.654;20.200;2022-12-08T08:48:29;32.15;;;22.58;;
59294;SDS011;45067;44.654;20.200;2022-12-08T08:50:56;31.40;;;22.35;;
59294;SDS011;45067;44.654;20.200;2022-12-08T08:53:23;32.22;;;23.00;;
59294;SDS011;45067;44.654;20.200;2022-12-08T08:55:50;29.77;;;21.50;;
59294;SDS011;45067;44.654;20.200;2022-12-08T08:58:16;32.63;;;21.27;;
59294;SDS011;45067;44.654;20.200;2022-12-08T09:00:42;30.65;;;21.25;;
59294;SDS011;45067;44.654;20.200;2022-12-08T09:03:08;28.98;;;19.90;;
59294;SDS011;45067;44.654;20.200;2022-12-08T09:05:36;29.02;;;20.50;;
59294;SDS011;45067;44.654;20.200;2022-12-08T09:08:03;30.02;;;20.70;;
59294;SDS011;45067;44.654;20.200;2022-12-08T09:10:29;28.45;;;20.98;;
59294;SDS011;45067;44.654;20.200;2022-12-08T09:12:55;32.33;;;21.23;;
59294;SDS011;45067;44.654;20.200;2022-12-08T09:15:21;21.10;;;13.30;;
59294;SDS011;45067;44.654;20.200;2022-12-08T09:17:47;13.55;;;9.50;;
59294;SDS011;45067;44.654;20.200;2022-12-08T09:20:17;16.88;;;11.40;;
59294;SDS011;45067;44.654;20.200;2022-12-08T09:22:45;20.15;;;11.90;;
59294;SDS011;45067;44.654;20.200;2022-12-08T09:25:12;15.90;;;11.18;;
59294;SDS011;45067;44.654;20.200;2022-12-08T09:27:38;16.35;;;11.13;;
59294;SDS011;45067;44.654;20.200;2022-12-08T09:30:04;15.85;;;10.45;;
59294;SDS011;45067;44.654;20.200;2022-12-08T09:32:31;14.50;;;9.65;;
59294;SDS011;45067;44.654;20.200;2022-12-08T09:34:57;16.42;;;11.30;;
59294;SDS011;45067;44.654;20.200;2022-12-08T09:37:23;19.48;;;10.88;;
59294;SDS011;45067;44.654;20.200;2022-12-08T09:39:49;16.38;;;11.32;;
59294;SDS011;45067;44.654;20.200;2022-12-08T09:42:16;18.52;;;11.52;;
59294;SDS011;45067;44.654;20.200;2022-12-08T09:47:38;14.75;;;9.57;;
59294;SDS011;45067;44.654;20.200;2022-12-08T09:50:09;15.70;;;9.43;;
59294;SDS011;45067;44.654;20.200;2022-12-08T09:52:39;14.15;;;8.65;;
59294;SDS011;45067;44.654;20.200;2022-12-08T09:55:23;12.50;;;7.28;;
59294;SDS011;45067;44.654;20.200;2022-12-08T09:57:52;12.32;;;7.75;;
59294;SDS011;45067;44.654;20.200;2022-12-08T10:00:20;16.55;;;8.32;;
59294;SDS011;45067;44.654;20.200;2022-12-08T10:02:47;13.80;;;8.70;;
59294;SDS011;45067;44.654;20.200;2022-12-08T10:05:13;11.23;;;8.38;;
59294;SDS011;45067;44.654;20.200;2022-12-08T10:07:47;16.80;;;10.18;;
59294;SDS011;45067;44.654;20.200;2022-12-08T10:15:38;12.88;;;8.52;;
59294;SDS011;45067;44.654;20.200;2022-12-08T10:18:16;11.15;;;7.40;;
59294;SDS011;45067;44.654;20.200;2022-12-08T10:20:43;12.43;;;7.93;;
59294;SDS011;45067;44.654;20.200;2022-12-08T10:25:48;12.23;;;7.93;;
59294;SDS011;45067;44.654;20.200;2022-12-08T10:28:15;16.15;;;9.18;;
59294;SDS011;45067;44.654;20.200;2022-12-08T10:30:41;15.15;;;8.27;;
59294;SDS011;45067;44.654;20.200;2022-12-08T10:33:17;13.23;;;9.30;;
59294;SDS011;45067;44.654;20.200;2022-12-08T10:36:17;15.73;;;9.63;;
59294;SDS011;45067;44.654;20.200;2022-12-08T10:38:37;16.38;;;11.07;;
59294;SDS011;45067;44.654;20.200;2022-12-08T10:43:30;11.95;;;8.52;;
59294;SDS011;45067;44.654;20.200;2022-12-08T10:46:06;19.42;;;11.73;;
59294;SDS011;45067;44.654;20.200;2022-12-08T10:48:33;19.92;;;9.05;;
59294;SDS011;45067;44.654;20.200;2022-12-08T10:50:59;17.20;;;10.52;;
59294;SDS011;45067;44.654;20.200;2022-12-08T10:53:31;15.63;;;10.02;;
59294;SDS011;45067;44.654;20.200;2022-12-08T10:58:43;15.13;;;9.73;;
59294;SDS011;45067;44.654;20.200;2022-12-08T11:06:12;22.10;;;11.02;;
59294;SDS011;45067;44.654;20.200;2022-12-08T11:08:46;31.75;;;13.57;;
59294;SDS011;45067;44.654;20.200;2022-12-08T11:11:13;13.48;;;9.50;;
59294;SDS011;45067;44.654;20.200;2022-12-08T11:13:40;14.52;;;10.13;;
59294;SDS011;45067;44.654;20.200;2022-12-08T11:16:06;18.50;;;11.45;;
59294;SDS011;45067;44.654;20.200;2022-12-08T11:18:43;18.17;;;11.50;;
59294;SDS011;45067;44.654;20.200;2022-12-08T11:21:33;17.17;;;11.25;;
59294;SDS011;45067;44.654;20.200;2022-12-08T11:23:57;19.25;;;12.25;;
59294;SDS011;45067;44.654;20.200;2022-12-08T11:26:25;17.05;;;10.35;;
59294;SDS011;45067;44.654;20.200;2022-12-08T11:28:53;22.83;;;13.48;;
59294;SDS011;45067;44.654;20.200;2022-12-08T11:31:21;19.98;;;14.25;;
59294;SDS011;45067;44.654;20.200;2022-12-08T11:33:50;21.73;;;14.15;;
59294;SDS011;45067;44.654;20.200;2022-12-08T11:36:16;24.63;;;15.57;;
59294;SDS011;45067;44.654;20.200;2022-12-08T11:38:44;23.52;;;15.15;;
59294;SDS011;45067;44.654;20.200;2022-12-08T11:41:18;28.20;;;16.83;;
59294;SDS011;45067;44.654;20.200;2022-12-08T11:46:32;20.48;;;14.02;;
59294;SDS011;45067;44.654;20.200;2022-12-08T11:49:00;22.48;;;14.18;;
59294;SDS011;45067;44.654;20.200;2022-12-08T11:51:47;20.52;;;13.70;;
59294;SDS011;45067;44.654;20.200;2022-12-08T11:56:48;25.60;;;16.48;;
59294;SDS011;45067;44.654;20.200;2022-12-08T11:59:18;24.95;;;16.52;;
59294;SDS011;45067;44.654;20.200;2022-12-08T12:01:45;22.25;;;15.82;;
59294;SDS011;45067;44.654;20.200;2022-12-08T12:09:16;23.52;;;15.25;;
59294;SDS011;45067;44.654;20.200;2022-12-08T12:19:56;29.23;;;17.13;;
59294;SDS011;45067;44.654;20.200;2022-12-08T12:22:24;36.80;;;22.10;;
59294;SDS011;45067;44.654;20.200;2022-12-08T12:24:51;34.90;;;21.83;;
59294;SDS011;45067;44.654;20.200;2022-12-08T12:27:27;28.95;;;19.15;;
59294;SDS011;45067;44.654;20.200;2022-12-08T12:29:57;33.25;;;21.52;;
59294;SDS011;45067;44.654;20.200;2022-12-08T12:32:25;46.33;;;29.15;;
59294;SDS011;45067;44.654;20.200;2022-12-08T12:34:53;40.58;;;25.25;;
59294;SDS011;45067;44.654;20.200;2022-12-08T12:37:41;32.47;;;20.15;;
59294;SDS011;45067;44.654;20.200;2022-12-08T12:40:25;28.20;;;18.15;;
59294;SDS011;45067;44.654;20.200;2022-12-08T12:45:23;27.65;;;17.48;;
59294;SDS011;45067;44.654;20.200;2022-12-08T12:47:51;24.42;;;16.70;;
59294;SDS011;45067;44.654;20.200;2022-12-08T12:53:02;25.38;;;17.02;;
59294;SDS011;45067;44.654;20.200;2022-12-08T12:58:18;29.25;;;17.88;;
59294;SDS011;45067;44.654;20.200;2022-12-08T13:00:45;30.00;;;19.27;;
59294;SDS011;45067;44.654;20.200;2022-12-08T13:03:14;33.67;;;20.35;;
59294;SDS011;45067;44.654;20.200;2022-12-08T13:05:48;31.15;;;19.67;;
59294;SDS011;45067;44.654;20.200;2022-12-08T13:08:18;25.45;;;18.17;;
59294;SDS011;45067;44.654;20.200;2022-12-08T13:10:55;25.80;;;16.88;;
59294;SDS011;45067;44.654;20.200;2022-12-08T13:13:22;24.48;;;17.23;;
59294;SDS011;45067;44.654;20.200;2022-12-08T13:21:04;34.67;;;22.50;;
59294;SDS011;45067;44.654;20.200;2022-12-08T13:26:12;32.42;;;22.23;;
59294;SDS011;45067;44.654;20.200;2022-12-08T13:31:39;37.97;;;25.55;;
59294;SDS011;45067;44.654;20.200;2022-12-08T13:36:35;62.78;;;36.20;;
59294;SDS011;45067;44.654;20.200;2022-12-08T13:39:03;63.53;;;40.72;;
59294;SDS011;45067;44.654;20.200;2022-12-08T13:41:34;54.75;;;34.65;;
59294;SDS011;45067;44.654;20.200;2022-12-08T13:44:08;44.72;;;29.48;;
59294;SDS011;45067;44.654;20.200;2022-12-08T13:46:58;39.95;;;27.20;;
59294;SDS011;45067;44.654;20.200;2022-12-08T13:49:26;46.22;;;29.35;;
59294;SDS011;45067;44.654;20.200;2022-12-08T13:51:53;41.20;;;27.15;;
59294;SDS011;45067;44.654;20.200;2022-12-08T13:54:27;41.88;;;26.58;;
59294;SDS011;45067;44.654;20.200;2022-12-08T13:56:54;53.60;;;35.03;;
59294;SDS011;45067;44.654;20.200;2022-12-08T14:01:47;51.05;;;32.08;;
59294;SDS011;45067;44.654;20.200;2022-12-08T14:04:15;34.28;;;23.52;;
59294;SDS011;45067;44.654;20.200;2022-12-08T14:06:42;35.47;;;23.33;;
59294;SDS011;45067;44.654;20.200;2022-12-08T14:09:10;36.58;;;24.70;;
59294;SDS011;45067;44.654;20.200;2022-12-08T14:11:56;32.22;;;21.98;;
59294;SDS011;45067;44.654;20.200;2022-12-08T14:14:26;38.28;;;23.25;;
59294;SDS011;45067;44.654;20.200;2022-12-08T14:16:54;34.13;;;22.45;;
59294;SDS011;45067;44.654;20.200;2022-12-08T14:19:22;32.13;;;22.23;;
59294;SDS011;45067;44.654;20.200;2022-12-08T14:24:38;51.30;;;33.28;;
59294;SDS011;45067;44.654;20.200;2022-12-08T14:27:08;44.30;;;27.88;;
59294;SDS011;45067;44.654;20.200;2022-12-08T14:29:43;48.05;;;32.47;;
59294;SDS011;45067;44.654;20.200;2022-12-08T14:34:52;57.33;;;34.95;;
59294;SDS011;45067;44.654;20.200;2022-12-08T14:37:18;49.80;;;30.27;;
59294;SDS011;45067;44.654;20.200;2022-12-08T14:39:45;58.17;;;34.75;;
59294;SDS011;45067;44.654;20.200;2022-12-08T14:42:17;63.25;;;39.72;;
59294;SDS011;45067;44.654;20.200;2022-12-08T14:44:46;54.72;;;36.55;;
59294;SDS011;45067;44.654;20.200;2022-12-08T14:47:16;57.65;;;41.20;;
59294;SDS011;45067;44.654;20.200;2022-12-08T14:49:43;43.90;;;30.02;;
59294;SDS011;45067;44.654;20.200;2022-12-08T14:52:11;38.15;;;26.40;;
59294;SDS011;45067;44.654;20.200;2022-12-08T14:54:38;41.97;;;27.42;;
59294;SDS011;45067;44.654;20.200;2022-12-08T14:57:04;49.22;;;31.73;;
59294;SDS011;45067;44.654;20.200;2022-12-08T14:59:32;42.33;;;27.90;;
59294;SDS011;45067;44.654;20.200;2022-12-08T15:04:36;43.53;;;23.67;;
59294;SDS011;45067;44.654;20.200;2022-12-08T15:07:06;50.83;;;32.42;;
59294;SDS011;45067;44.654;20.200;2022-12-08T15:09:39;63.85;;;41.35;;
59294;SDS011;45067;44.654;20.200;2022-12-08T15:14:36;50.25;;;33.53;;
59294;SDS011;45067;44.654;20.200;2022-12-08T15:17:03;41.00;;;27.83;;
59294;SDS011;45067;44.654;20.200;2022-12-08T15:19:30;38.25;;;25.38;;
59294;SDS011;45067;44.654;20.200;2022-12-08T15:21:57;38.58;;;25.85;;
59294;SDS011;45067;44.654;20.200;2022-12-08T15:24:25;37.53;;;25.40;;
59294;SDS011;45067;44.654;20.200;2022-12-08T15:26:53;37.95;;;24.90;;
59294;SDS011;45067;44.654;20.200;2022-12-08T15:29:20;35.55;;;23.90;;
59294;SDS011;45067;44.654;20.200;2022-12-08T15:31:47;43.25;;;28.35;;
59294;SDS011;45067;44.654;20.200;2022-12-08T15:34:13;54.50;;;32.13;;
59294;SDS011;45067;44.654;20.200;2022-12-08T15:36:39;53.53;;;34.45;;
59294;SDS011;45067;44.654;20.200;2022-12-08T15:39:29;62.63;;;38.47;;
59294;SDS011;45067;44.654;20.200;2022-12-08T15:41:53;61.65;;;39.78;;
59294;SDS011;45067;44.654;20.200;2022-12-08T15:44:19;68.35;;;42.17;;
59294;SDS011;45067;44.654;20.200;2022-12-08T15:46:45;79.68;;;49.78;;
59294;SDS011;45067;44.654;20.200;2022-12-08T15:49:14;67.68;;;42.85;;
59294;SDS011;45067;44.654;20.200;2022-12-08T15:51:41;63.00;;;39.45;;
59294;SDS011;45067;44.654;20.200;2022-12-08T15:54:07;64.85;;;38.97;;
59294;SDS011;45067;44.654;20.200;2022-12-08T15:56:33;49.95;;;31.80;;
59294;SDS011;45067;44.654;20.200;2022-12-08T15:59:00;51.72;;;33.03;;
59294;SDS011;45067;44.654;20.200;2022-12-08T16:01:26;54.78;;;32.95;;
59294;SDS011;45067;44.654;20.200;2022-12-08T16:03:52;49.92;;;32.35;;